MWCR

Details ICAO MWCR (GCM)
Name Owen Roberts Intl
Region Cayman Islands
Timezone America/Cayman (UTC-5.0)
Plans Departing 257
Arriving 277
Stats Elevation 6 ft / 2 m (AMSL)
Location 19.292800° -81.357800°
Runways 1
Magnetic Variation 5.084° W
Sunrise 2018-09-20 11:15:13 UTC / 2018-09-20 06:15:13 Local
Sunset 2018-09-20 23:25:12 UTC / 2018-09-20 18:25:12 Local
Advertisement - Login to hide

Runways

ID Width Length Bearing (true/mag) Surface Threshold Overrun Markings Lighting
08 148 ft / 45 m 7,026 ft / 2,141 m 75.86° / 80.94° CONCRETE 0 ft / 0 m 0 ft / 0 m APP EDGE THRESHOLD ODALS REIL-OMNI
26 148 ft / 45 m 7,026 ft / 2,141 m 255.86° / 260.95° CONCRETE 423 ft / 129 m 0 ft / 0 m APP EDGE THRESHOLD REIL-OMNI

Map

Weather


0- 5 10 15 20 25 30 35+ Temperature / °C

Clouds and Precipitation
Forecast for 2018-09-20 18:00 UTC. Updated 3 hours ago

Ground ~20,000 ft ~40,000 ft Winds

METAR

MWCR 201800Z 05011KT 9999 SCT018 BKN045 32/27 Q1014

TAF

TAF MWCR 201100Z 2012/2112 08010KT 9999 VCSH FEW018 BKN040 PROB30 TEMPO 2106/2112 08010G20KT 9000 SHRA FEW016CB SCT030

Frequencies

Recorded 132.35 MHz ATIS
Tower 118.00 MHz
Ground 121.90 MHz
Approach 120.20 MHz GRAND CAYMAN APP
Warning: Do not use this data for real-world aviation or navigation. No guarantee of current accuracy is given.